sensor_id;sensor_type;location;lat;lon;timestamp;pressure;altitude;pressure_sealevel;temperature;humidity
35918;BME280;22011;59.912;30.300;2023-02-12T00:01:27;101783.53;;;-3.93;66.46
35918;BME280;22011;59.912;30.300;2023-02-12T00:03:54;101782.00;;;-4.00;66.61
35918;BME280;22011;59.912;30.300;2023-02-12T00:06:22;101784.72;;;-4.03;66.84
35918;BME280;22011;59.912;30.300;2023-02-12T00:08:51;101792.72;;;-4.09;66.80
35918;BME280;22011;59.912;30.300;2023-02-12T00:11:20;101795.44;;;-4.14;66.54
35918;BME280;22011;59.912;30.300;2023-02-12T00:13:49;101805.84;;;-4.14;66.67
35918;BME280;22011;59.912;30.300;2023-02-12T00:16:20;101809.44;;;-4.16;66.80
35918;BME280;22011;59.912;30.300;2023-02-12T00:18:50;101815.72;;;-4.23;67.00
35918;BME280;22011;59.912;30.300;2023-02-12T00:21:18;101829.09;;;-4.36;67.16
35918;BME280;22011;59.912;30.300;2023-02-12T00:23:46;101825.75;;;-4.41;66.97
35918;BME280;22011;59.912;30.300;2023-02-12T00:26:16;101832.66;;;-4.40;67.27
35918;BME280;22011;59.912;30.300;2023-02-12T00:28:47;101848.31;;;-4.41;66.77
35918;BME280;22011;59.912;30.300;2023-02-12T00:31:19;101840.47;;;-4.40;66.71
35918;BME280;22011;59.912;30.300;2023-02-12T00:33:47;101855.31;;;-4.43;66.80
35918;BME280;22011;59.912;30.300;2023-02-12T00:36:17;101847.66;;;-4.48;66.56
35918;BME280;22011;59.912;30.300;2023-02-12T00:38:45;101855.50;;;-4.49;67.04
35918;BME280;22011;59.912;30.300;2023-02-12T00:41:14;101858.13;;;-4.51;67.37
35918;BME280;22011;59.912;30.300;2023-02-12T00:43:42;101851.22;;;-4.52;67.64
35918;BME280;22011;59.912;30.300;2023-02-12T00:46:09;101864.16;;;-4.49;67.42
35918;BME280;22011;59.912;30.300;2023-02-12T00:48:38;101870.06;;;-4.44;67.37
35918;BME280;22011;59.912;30.300;2023-02-12T00:51:06;101876.13;;;-4.43;67.84
35918;BME280;22011;59.912;30.300;2023-02-12T00:53:34;101880.53;;;-4.45;67.34
35918;BME280;22011;59.912;30.300;2023-02-12T00:56:02;101885.75;;;-4.47;67.02
35918;BME280;22011;59.912;30.300;2023-02-12T00:58:30;101884.06;;;-4.48;67.20
35918;BME280;22011;59.912;30.300;2023-02-12T01:00:59;101884.13;;;-4.51;66.97
35918;BME280;22011;59.912;30.300;2023-02-12T01:03:26;101883.38;;;-4.54;67.41
35918;BME280;22011;59.912;30.300;2023-02-12T01:05:55;101893.94;;;-4.61;67.60
35918;BME280;22011;59.912;30.300;2023-02-12T01:08:23;101894.88;;;-4.63;67.75
35918;BME280;22011;59.912;30.300;2023-02-12T01:10:55;101890.31;;;-4.55;67.97
35918;BME280;22011;59.912;30.300;2023-02-12T01:13:24;101880.03;;;-4.59;67.18
35918;BME280;22011;59.912;30.300;2023-02-12T01:16:01;101883.16;;;-4.47;66.94
35918;BME280;22011;59.912;30.300;2023-02-12T01:18:28;101894.63;;;-4.54;66.14
35918;BME280;22011;59.912;30.300;2023-02-12T01:20:57;101900.75;;;-4.56;65.94
35918;BME280;22011;59.912;30.300;2023-02-12T01:23:26;101906.00;;;-4.58;66.42
35918;BME280;22011;59.912;30.300;2023-02-12T01:25:54;101914.78;;;-4.62;66.24
35918;BME280;22011;59.912;30.300;2023-02-12T01:28:21;101917.47;;;-4.65;66.81
35918;BME280;22011;59.912;30.300;2023-02-12T01:30:50;101924.44;;;-4.67;67.23
35918;BME280;22011;59.912;30.300;2023-02-12T01:33:17;101924.44;;;-4.67;67.05
35918;BME280;22011;59.912;30.300;2023-02-12T01:35:46;101928.03;;;-4.71;66.42
35918;BME280;22011;59.912;30.300;2023-02-12T01:38:14;101926.31;;;-4.72;67.50
35918;BME280;22011;59.912;30.300;2023-02-12T01:40:42;101941.91;;;-4.72;67.88
35918;BME280;22011;59.912;30.300;2023-02-12T01:43:11;101946.19;;;-4.70;67.20
35918;BME280;22011;59.912;30.300;2023-02-12T01:45:44;101959.94;;;-4.65;67.89
35918;BME280;22011;59.912;30.300;2023-02-12T01:48:13;101958.41;;;-4.73;67.38
35918;BME280;22011;59.912;30.300;2023-02-12T01:50:43;101970.00;;;-4.52;68.25
35918;BME280;22011;59.912;30.300;2023-02-12T01:53:15;101973.81;;;-4.66;67.78
35918;BME280;22011;59.912;30.300;2023-02-12T01:55:47;101975.56;;;-4.66;67.83
35918;BME280;22011;59.912;30.300;2023-02-12T01:58:15;101982.72;;;-4.74;67.38
35918;BME280;22011;59.912;30.300;2023-02-12T02:00:43;101977.69;;;-4.82;67.39
35918;BME280;22011;59.912;30.300;2023-02-12T02:03:11;101990.63;;;-4.79;67.81
35918;BME280;22011;59.912;30.300;2023-02-12T02:05:43;101981.97;;;-4.79;68.25
35918;BME280;22011;59.912;30.300;2023-02-12T02:08:14;101992.44;;;-4.82;68.08
35918;BME280;22011;59.912;30.300;2023-02-12T02:10:42;101987.97;;;-4.77;68.09
35918;BME280;22011;59.912;30.300;2023-02-12T02:13:09;101992.13;;;-4.70;68.02
35918;BME280;22011;59.912;30.300;2023-02-12T02:15:59;101998.81;;;-4.60;68.56
35918;BME280;22011;59.912;30.300;2023-02-12T02:18:35;102005.56;;;-4.53;68.18
35918;BME280;22011;59.912;30.300;2023-02-12T02:21:23;101999.28;;;-4.44;68.12
35918;BME280;22011;59.912;30.300;2023-02-12T02:24:25;102007.00;;;-4.41;67.98
35918;BME280;22011;59.912;30.300;2023-02-12T02:27:23;102008.84;;;-4.45;67.65
35918;BME280;22011;59.912;30.300;2023-02-12T02:30:17;102009.69;;;-4.44;67.70
35918;BME280;22011;59.912;30.300;2023-02-12T02:32:57;102005.56;;;-4.53;67.63
35918;BME280;22011;59.912;30.300;2023-02-12T02:35:31;102007.75;;;-4.70;66.96
35918;BME280;22011;59.912;30.300;2023-02-12T02:38:14;102024.41;;;-4.79;67.53
35918;BME280;22011;59.912;30.300;2023-02-12T02:40:50;102013.34;;;-4.87;67.62
35918;BME280;22011;59.912;30.300;2023-02-12T02:43:23;102016.13;;;-4.95;68.08
35918;BME280;22011;59.912;30.300;2023-02-12T02:45:58;102018.78;;;-4.98;68.28
35918;BME280;22011;59.912;30.300;2023-02-12T02:48:33;102014.28;;;-4.89;68.71
35918;BME280;22011;59.912;30.300;2023-02-12T02:51:05;102015.16;;;-4.90;68.11
35918;BME280;22011;59.912;30.300;2023-02-12T02:53:37;102012.72;;;-4.97;67.63
35918;BME280;22011;59.912;30.300;2023-02-12T02:56:07;102011.78;;;-4.94;68.43
35918;BME280;22011;59.912;30.300;2023-02-12T02:58:41;102024.72;;;-4.91;68.56
35918;BME280;22011;59.912;30.300;2023-02-12T03:01:15;102031.66;;;-4.91;68.47
35918;BME280;22011;59.912;30.300;2023-02-12T03:03:48;102033.31;;;-4.89;68.15
35918;BME280;22011;59.912;30.300;2023-02-12T03:06:23;102033.84;;;-4.75;68.82
35918;BME280;22011;59.912;30.300;2023-02-12T03:08:54;102041.69;;;-4.76;68.64
35918;BME280;22011;59.912;30.300;2023-02-12T03:11:25;102046.06;;;-4.78;68.55
35918;BME280;22011;59.912;30.300;2023-02-12T03:13:58;102044.38;;;-4.79;68.27
35918;BME280;22011;59.912;30.300;2023-02-12T03:16:31;102049.44;;;-4.75;68.63
35918;BME280;22011;59.912;30.300;2023-02-12T03:19:05;102051.13;;;-4.72;68.12
35918;BME280;22011;59.912;30.300;2023-02-12T03:21:39;102055.31;;;-4.67;68.38
35918;BME280;22011;59.912;30.300;2023-02-12T03:24:11;102063.94;;;-4.65;68.58
35918;BME280;22011;59.912;30.300;2023-02-12T03:26:45;102075.13;;;-4.61;68.90
35918;BME280;22011;59.912;30.300;2023-02-12T03:29:13;102072.63;;;-4.66;68.44
35918;BME280;22011;59.912;30.300;2023-02-12T03:31:50;102069.81;;;-4.56;68.55
35918;BME280;22011;59.912;30.300;2023-02-12T03:34:26;102077.59;;;-4.55;68.89
35918;BME280;22011;59.912;30.300;2023-02-12T03:37:00;102088.03;;;-4.56;68.50
35918;BME280;22011;59.912;30.300;2023-02-12T03:39:33;102089.69;;;-4.54;68.24
35918;BME280;22011;59.912;30.300;2023-02-12T03:42:06;102085.31;;;-4.52;68.70
35918;BME280;22011;59.912;30.300;2023-02-12T03:44:55;102094.56;;;-4.40;68.59
35918;BME280;22011;59.912;30.300;2023-02-12T03:47:35;102093.88;;;-4.47;68.12
35918;BME280;22011;59.912;30.300;2023-02-12T03:50:09;102093.94;;;-4.50;67.72
35918;BME280;22011;59.912;30.300;2023-02-12T03:52:40;102099.44;;;-4.62;67.75
35918;BME280;22011;59.912;30.300;2023-02-12T03:55:09;102103.81;;;-4.64;68.06
35918;BME280;22011;59.912;30.300;2023-02-12T03:57:39;102107.06;;;-4.54;68.07
35918;BME280;22011;59.912;30.300;2023-02-12T04:00:12;102103.53;;;-4.52;67.81
35918;BME280;22011;59.912;30.300;2023-02-12T04:02:44;102103.63;;;-4.56;67.49
35918;BME280;22011;59.912;30.300;2023-02-12T04:05:19;102101.63;;;-4.45;68.35
35918;BME280;22011;59.912;30.300;2023-02-12T04:07:47;102108.63;;;-4.47;68.47
35918;BME280;22011;59.912;30.300;2023-02-12T04:10:15;102105.94;;;-4.44;67.40
35918;BME280;22011;59.912;30.300;2023-02-12T04:12:49;102104.91;;;-4.37;67.93
35918;BME280;22011;59.912;30.300;2023-02-12T04:15:36;102115.97;;;-4.29;67.99
35918;BME280;22011;59.912;30.300;2023-02-12T04:18:16;102122.19;;;-4.35;67.81
35918;BME280;22011;59.912;30.300;2023-02-12T04:20:53;102118.81;;;-4.38;68.25
35918;BME280;22011;59.912;30.300;2023-02-12T04:23:39;102125.94;;;-4.46;68.21
35918;BME280;22011;59.912;30.300;2023-02-12T04:26:17;102133.00;;;-4.51;68.30
35918;BME280;22011;59.912;30.300;2023-02-12T04:28:54;102133.06;;;-4.54;68.12
35918;BME280;22011;59.912;30.300;2023-02-12T04:31:29;102132.38;;;-4.63;68.43
35918;BME280;22011;59.912;30.300;2023-02-12T04:34:05;102134.25;;;-4.69;68.56
35918;BME280;22011;59.912;30.300;2023-02-12T04:36:38;102135.97;;;-4.68;69.15
35918;BME280;22011;59.912;30.300;2023-02-12T04:39:10;102137.63;;;-4.64;68.58
35918;BME280;22011;59.912;30.300;2023-02-12T04:41:38;102130.66;;;-4.64;68.15
35918;BME280;22011;59.912;30.300;2023-02-12T04:44:14;102131.38;;;-4.57;68.61
35918;BME280;22011;59.912;30.300;2023-02-12T04:46:42;102129.00;;;-4.66;68.97
35918;BME280;22011;59.912;30.300;2023-02-12T04:49:14;102134.88;;;-4.58;69.01
35918;BME280;22011;59.912;30.300;2023-02-12T04:51:42;102134.97;;;-4.63;68.68
35918;BME280;22011;59.912;30.300;2023-02-12T04:54:10;102137.75;;;-4.70;68.51
35918;BME280;22011;59.912;30.300;2023-02-12T04:56:37;102134.41;;;-4.75;68.69
35918;BME280;22011;59.912;30.300;2023-02-12T04:59:05;102131.03;;;-4.80;68.79
35918;BME280;22011;59.912;30.300;2023-02-12T05:01:33;102128.41;;;-4.79;69.42
35918;BME280;22011;59.912;30.300;2023-02-12T05:04:01;102121.47;;;-4.78;69.09
35918;BME280;22011;59.912;30.300;2023-02-12T05:06:33;102124.06;;;-4.78;69.29
35918;BME280;22011;59.912;30.300;2023-02-12T05:09:01;102121.50;;;-4.80;69.32
35918;BME280;22011;59.912;30.300;2023-02-12T05:11:28;102125.84;;;-4.80;68.92
35918;BME280;22011;59.912;30.300;2023-02-12T05:13:56;102122.50;;;-4.85;68.65
35918;BME280;22011;59.912;30.300;2023-02-12T05:16:24;102121.72;;;-4.89;69.00
35918;BME280;22011;59.912;30.300;2023-02-12T05:18:51;102125.19;;;-4.90;69.56
35918;BME280;22011;59.912;30.300;2023-02-12T05:21:19;102135.47;;;-4.84;69.86
35918;BME280;22011;59.912;30.300;2023-02-12T05:23:48;102141.44;;;-4.80;69.61
35918;BME280;22011;59.912;30.300;2023-02-12T05:26:17;102142.34;;;-4.81;69.57
35918;BME280;22011;59.912;30.300;2023-02-12T05:28:45;102143.28;;;-4.85;69.34
35918;BME280;22011;59.912;30.300;2023-02-12T05:31:15;102150.13;;;-4.81;69.08
35918;BME280;22011;59.912;30.300;2023-02-12T05:33:43;102151.84;;;-4.80;69.24
35918;BME280;22011;59.912;30.300;2023-02-12T05:36:13;102150.06;;;-4.78;69.05
35918;BME280;22011;59.912;30.300;2023-02-12T05:38:41;102157.22;;;-4.88;68.77
35918;BME280;22011;59.912;30.300;2023-02-12T05:41:12;102151.16;;;-4.88;69.32
35918;BME280;22011;59.912;30.300;2023-02-12T05:43:40;102161.63;;;-4.91;69.36
35918;BME280;22011;59.912;30.300;2023-02-12T05:46:08;102155.72;;;-5.00;69.34
35918;BME280;22011;59.912;30.300;2023-02-12T05:48:36;102162.75;;;-5.05;69.80
35918;BME280;22011;59.912;30.300;2023-02-12T05:51:06;102168.69;;;-4.98;70.15
35918;BME280;22011;59.912;30.300;2023-02-12T05:53:34;102163.44;;;-4.95;70.19
35918;BME280;22011;59.912;30.300;2023-02-12T05:56:08;102159.00;;;-4.90;70.47
35918;BME280;22011;59.912;30.300;2023-02-12T05:58:37;102156.50;;;-4.95;70.07
35918;BME280;22011;59.912;30.300;2023-02-12T06:01:09;102151.31;;;-4.96;70.53
35918;BME280;22011;59.912;30.300;2023-02-12T06:03:37;102155.78;;;-5.03;70.34
35918;BME280;22011;59.912;30.300;2023-02-12T06:06:05;102161.00;;;-5.03;70.46
35918;BME280;22011;59.912;30.300;2023-02-12T06:08:33;102165.38;;;-5.05;70.22
35918;BME280;22011;59.912;30.300;2023-02-12T06:11:01;102162.63;;;-4.99;70.85
35918;BME280;22011;59.912;30.300;2023-02-12T06:13:30;102155.66;;;-4.97;70.99
35918;BME280;22011;59.912;30.300;2023-02-12T06:15:59;102151.97;;;-4.86;71.35
35918;BME280;22011;59.912;30.300;2023-02-12T06:18:27;102156.44;;;-4.93;70.65
35918;BME280;22011;59.912;30.300;2023-02-12T06:20:55;102155.66;;;-4.97;70.56
35918;BME280;22011;59.912;30.300;2023-02-12T06:23:23;102153.88;;;-4.95;70.63
35918;BME280;22011;59.912;30.300;2023-02-12T06:25:55;102153.72;;;-4.87;71.25
35918;BME280;22011;59.912;30.300;2023-02-12T06:28:23;102153.72;;;-4.87;71.33
35918;BME280;22011;59.912;30.300;2023-02-12T06:30:50;102148.50;;;-4.85;71.33
35918;BME280;22011;59.912;30.300;2023-02-12T06:33:20;102151.06;;;-4.84;70.74
35918;BME280;22011;59.912;30.300;2023-02-12T06:35:47;102156.09;;;-4.76;70.74
35918;BME280;22011;59.912;30.300;2023-02-12T06:38:15;102158.56;;;-4.70;70.66
35918;BME280;22011;59.912;30.300;2023-02-12T06:40:43;102149.72;;;-4.63;71.06
35918;BME280;22011;59.912;30.300;2023-02-12T06:43:10;102154.88;;;-4.60;70.77
35918;BME280;22011;59.912;30.300;2023-02-12T06:45:38;102152.22;;;-4.58;71.11
35918;BME280;22011;59.912;30.300;2023-02-12T06:48:05;102149.69;;;-4.62;70.90
35918;BME280;22011;59.912;30.300;2023-02-12T06:50:34;102145.31;;;-4.59;71.25
35918;BME280;22011;59.912;30.300;2023-02-12T06:53:02;102147.06;;;-4.60;70.94
35918;BME280;22011;59.912;30.300;2023-02-12T06:55:29;102139.13;;;-4.54;71.04
35918;BME280;22011;59.912;30.300;2023-02-12T06:57:57;102147.66;;;-4.49;71.26
35918;BME280;22011;59.912;30.300;2023-02-12T07:00:24;102151.09;;;-4.47;71.13
35918;BME280;22011;59.912;30.300;2023-02-12T07:02:53;102149.31;;;-4.45;70.78
35918;BME280;22011;59.912;30.300;2023-02-12T07:05:20;102151.09;;;-4.47;70.85
35918;BME280;22011;59.912;30.300;2023-02-12T07:07:50;102158.00;;;-4.46;70.76
35918;BME280;22011;59.912;30.300;2023-02-12T07:10:18;102163.22;;;-4.46;70.56
35918;BME280;22011;59.912;30.300;2023-02-12T07:12:45;102159.72;;;-4.45;70.56
35918;BME280;22011;59.912;30.300;2023-02-12T07:15:13;102168.34;;;-4.43;70.85
35918;BME280;22011;59.912;30.300;2023-02-12T07:17:40;102169.91;;;-4.36;71.11
35918;BME280;22011;59.912;30.300;2023-02-12T07:20:09;102177.59;;;-4.31;70.78
35918;BME280;22011;59.912;30.300;2023-02-12T07:22:36;102182.75;;;-4.28;70.73
35918;BME280;22011;59.912;30.300;2023-02-12T07:25:05;102190.50;;;-4.26;70.53
35918;BME280;22011;59.912;30.300;2023-02-12T07:27:35;102187.13;;;-4.30;70.20
35918;BME280;22011;59.912;30.300;2023-02-12T07:30:04;102195.00;;;-4.33;70.10
35918;BME280;22011;59.912;30.300;2023-02-12T07:32:34;102209.88;;;-4.38;70.09
35918;BME280;22011;59.912;30.300;2023-02-12T07:35:01;102209.03;;;-4.40;69.94
35918;BME280;22011;59.912;30.300;2023-02-12T07:37:29;102212.47;;;-4.38;69.99
35918;BME280;22011;59.912;30.300;2023-02-12T07:39:56;102217.66;;;-4.38;69.62
35918;BME280;22011;59.912;30.300;2023-02-12T07:42:25;102227.16;;;-4.36;69.89
35918;BME280;22011;59.912;30.300;2023-02-12T07:44:54;102224.56;;;-4.36;69.99
35918;BME280;22011;59.912;30.300;2023-02-12T07:47:21;102224.47;;;-4.33;70.16
35918;BME280;22011;59.912;30.300;2023-02-12T07:49:49;102226.13;;;-4.29;70.27
35918;BME280;22011;59.912;30.300;2023-02-12T07:52:17;102218.19;;;-4.22;70.60
35918;BME280;22011;59.912;30.300;2023-02-12T07:54:44;102230.22;;;-4.18;70.46
35918;BME280;22011;59.912;30.300;2023-02-12T07:57:12;102234.44;;;-4.14;70.45
35918;BME280;22011;59.912;30.300;2023-02-12T07:59:41;102230.94;;;-4.13;70.07
35918;BME280;22011;59.912;30.300;2023-02-12T08:02:08;102233.53;;;-4.13;70.01
35918;BME280;22011;59.912;30.300;2023-02-12T08:04:36;102234.44;;;-4.14;70.12
35918;BME280;22011;59.912;30.300;2023-02-12T08:07:03;102235.28;;;-4.14;70.44
35918;BME280;22011;59.912;30.300;2023-02-12T08:09:31;102237.91;;;-4.14;70.45
35918;BME280;22011;59.912;30.300;2023-02-12T08:11:58;102217.03;;;-4.12;70.61
35918;BME280;22011;59.912;30.300;2023-02-12T08:14:27;102214.38;;;-4.09;70.65
35918;BME280;22011;59.912;30.300;2023-02-12T08:16:56;102218.41;;;-3.98;71.27
35918;BME280;22011;59.912;30.300;2023-02-12T08:19:25;102211.09;;;-3.82;70.90
35918;BME280;22011;59.912;30.300;2023-02-12T08:21:53;102207.28;;;-3.69;70.59
35918;BME280;22011;59.912;30.300;2023-02-12T08:24:21;102200.25;;;-3.65;70.84
35918;BME280;22011;59.912;30.300;2023-02-12T08:26:49;102197.44;;;-3.57;70.74
35918;BME280;22011;59.912;30.300;2023-02-12T08:29:19;102185.00;;;-3.46;70.85
35918;BME280;22011;59.912;30.300;2023-02-12T08:31:48;102191.63;;;-3.35;70.72
35918;BME280;22011;59.912;30.300;2023-02-12T08:34:18;102199.88;;;-3.19;70.39
35918;BME280;22011;59.912;30.300;2023-02-12T08:36:47;102194.34;;;-3.08;70.14
35918;BME280;22011;59.912;30.300;2023-02-12T08:39:17;102195.66;;;-2.93;70.68
35918;BME280;22011;59.912;30.300;2023-02-12T08:41:45;102203.25;;;-2.86;70.33
35918;BME280;22011;59.912;30.300;2023-02-12T08:44:14;102196.94;;;-2.77;70.69
35918;BME280;22011;59.912;30.300;2023-02-12T08:46:43;102196.47;;;-2.62;70.60
35918;BME280;22011;59.912;30.300;2023-02-12T08:49:13;102193.59;;;-2.53;70.43
35918;BME280;22011;59.912;30.300;2023-02-12T08:51:43;102194.03;;;-2.39;70.36
35918;BME280;22011;59.912;30.300;2023-02-12T08:54:13;102195.63;;;-2.35;70.17
35918;BME280;22011;59.912;30.300;2023-02-12T08:56:41;102186.59;;;-2.24;70.25
35918;BME280;22011;59.912;30.300;2023-02-12T08:59:11;102201.88;;;-2.12;70.82
35918;BME280;22011;59.912;30.300;2023-02-12T09:01:40;102212.97;;;-2.06;70.77
35918;BME280;22011;59.912;30.300;2023-02-12T09:04:12;102232.59;;;-1.94;70.78
35918;BME280;22011;59.912;30.300;2023-02-12T09:06:43;102222.91;;;-1.90;70.68
35918;BME280;22011;59.912;30.300;2023-02-12T09:09:11;102211.50;;;-1.88;70.11
35918;BME280;22011;59.912;30.300;2023-02-12T09:11:39;102206.84;;;-1.78;70.29
35918;BME280;22011;59.912;30.300;2023-02-12T09:14:09;102203.13;;;-1.71;70.00
35918;BME280;22011;59.912;30.300;2023-02-12T09:16:37;102184.88;;;-1.73;70.42
35918;BME280;22011;59.912;30.300;2023-02-12T09:19:05;102181.94;;;-1.63;70.43
35918;BME280;22011;59.912;30.300;2023-02-12T09:21:33;102185.09;;;-1.54;70.24
35918;BME280;22011;59.912;30.300;2023-02-12T09:24:02;102182.16;;;-1.45;69.91
35918;BME280;22011;59.912;30.300;2023-02-12T09:26:30;102181.91;;;-1.37;70.27
35918;BME280;22011;59.912;30.300;2023-02-12T09:28:58;102174.13;;;-1.39;70.05
35918;BME280;22011;59.912;30.300;2023-02-12T09:31:26;102164.41;;;-1.35;69.51
35918;BME280;22011;59.912;30.300;2023-02-12T09:33:58;102162.25;;;-1.24;69.69
35918;BME280;22011;59.912;30.300;2023-02-12T09:36:26;102166.53;;;-1.21;69.52
35918;BME280;22011;59.912;30.300;2023-02-12T09:38:54;102170.69;;;-1.16;69.46
35918;BME280;22011;59.912;30.300;2023-02-12T09:41:51;102165.75;;;-1.02;70.26
35918;BME280;22011;59.912;30.300;2023-02-12T09:44:28;102165.09;;;-1.07;70.45
35918;BME280;22011;59.912;30.300;2023-02-12T09:47:02;102167.78;;;-1.08;70.17
35918;BME280;22011;59.912;30.300;2023-02-12T09:49:55;102149.59;;;-0.89;70.58
35918;BME280;22011;59.912;30.300;2023-02-12T09:52:28;102129.09;;;-1.00;69.78
35918;BME280;22011;59.912;30.300;2023-02-12T09:54:56;102121.06;;;-0.95;69.58
35918;BME280;22011;59.912;30.300;2023-02-12T09:57:30;102132.88;;;-0.85;69.79
35918;BME280;22011;59.912;30.300;2023-02-12T10:00:04;102129.91;;;-0.76;69.71
35918;BME280;22011;59.912;30.300;2023-02-12T10:02:34;102124.84;;;-0.81;69.63
35918;BME280;22011;59.912;30.300;2023-02-12T10:05:04;102130.81;;;-0.77;70.09
35918;BME280;22011;59.912;30.300;2023-02-12T10:07:51;102125.84;;;-0.61;69.92
35918;BME280;22011;59.912;30.300;2023-02-12T10:10:30;102126.41;;;-0.53;69.49
35918;BME280;22011;59.912;30.300;2023-02-12T10:13:05;102130.66;;;-0.51;69.42
35918;BME280;22011;59.912;30.300;2023-02-12T10:15:37;102141.19;;;-0.52;68.97
35918;BME280;22011;59.912;30.300;2023-02-12T10:18:25;102134.00;;;-0.47;69.27
35918;BME280;22011;59.912;30.300;2023-02-12T10:21:11;102134.97;;;-0.50;69.21
35918;BME280;22011;59.912;30.300;2023-02-12T10:23:54;102139.19;;;-0.46;69.21
35918;BME280;22011;59.912;30.300;2023-02-12T10:26:29;102136.31;;;-0.40;68.95
35918;BME280;22011;59.912;30.300;2023-02-12T10:29:08;102145.31;;;-0.25;69.57
35918;BME280;22011;59.912;30.300;2023-02-12T10:31:41;102128.50;;;-0.19;69.00
35918;BME280;22011;59.912;30.300;2023-02-12T10:34:17;102131.66;;;-0.11;68.86
35918;BME280;22011;59.912;30.300;2023-02-12T10:36:46;102122.09;;;-0.12;68.02
35918;BME280;22011;59.912;30.300;2023-02-12T10:39:20;102122.22;;;0.05;68.44
35918;BME280;22011;59.912;30.300;2023-02-12T10:41:53;102123.09;;;0.26;67.58
35918;BME280;22011;59.912;30.300;2023-02-12T10:44:24;102116.91;;;0.27;67.45
35918;BME280;22011;59.912;30.300;2023-02-12T10:46:52;102112.66;;;0.24;67.59
35918;BME280;22011;59.912;30.300;2023-02-12T10:49:19;102109.06;;;0.27;68.14
35918;BME280;22011;59.912;30.300;2023-02-12T10:51:56;102096.28;;;0.40;68.72
35918;BME280;22011;59.912;30.300;2023-02-12T10:54:34;102085.78;;;0.40;68.57
35918;BME280;22011;59.912;30.300;2023-02-12T10:57:14;102089.91;;;0.45;68.54
35918;BME280;22011;59.912;30.300;2023-02-12T10:59:46;102092.72;;;0.41;67.98
35918;BME280;22011;59.912;30.300;2023-02-12T11:02:19;102085.38;;;0.49;68.31
35918;BME280;22011;59.912;30.300;2023-02-12T11:04:48;102084.66;;;0.45;67.63
35918;BME280;22011;59.912;30.300;2023-02-12T11:07:17;102083.34;;;0.55;67.78
35918;BME280;22011;59.912;30.300;2023-02-12T11:09:46;102078.94;;;0.56;67.92
35918;BME280;22011;59.912;30.300;2023-02-12T11:12:29;102081.84;;;0.69;68.16
35918;BME280;22011;59.912;30.300;2023-02-12T11:15:00;102081.28;;;0.62;67.84
35918;BME280;22011;59.912;30.300;2023-02-12T11:17:33;102067.75;;;1.26;69.17
35918;BME280;22011;59.912;30.300;2023-02-12T11:20:20;102065.44;;;1.90;66.78
35918;BME280;22011;59.912;30.300;2023-02-12T11:22:51;102056.16;;;2.34;64.42
35918;BME280;22011;59.912;30.300;2023-02-12T11:25:19;102044.63;;;2.36;63.08
35918;BME280;22011;59.912;30.300;2023-02-12T11:28:13;102052.78;;;2.14;64.28
35918;BME280;22011;59.912;30.300;2023-02-12T11:30:50;102046.59;;;1.82;64.54
35918;BME280;22011;59.912;30.300;2023-02-12T11:33:27;102044.34;;;1.57;65.08
35918;BME280;22011;59.912;30.300;2023-02-12T11:35:56;102053.41;;;1.33;65.94
35918;BME280;22011;59.912;30.300;2023-02-12T11:38:27;102043.50;;;1.21;66.58
35918;BME280;22011;59.912;30.300;2023-02-12T11:40:59;102043.94;;;1.12;67.06
35918;BME280;22011;59.912;30.300;2023-02-12T11:43:28;102050.59;;;1.02;66.99
35918;BME280;22011;59.912;30.300;2023-02-12T11:45:59;102043.72;;;0.99;67.40
35918;BME280;22011;59.912;30.300;2023-02-12T11:48:29;102045.34;;;1.02;67.05
35918;BME280;22011;59.912;30.300;2023-02-12T11:51:02;102038.38;;;1.01;67.33
35918;BME280;22011;59.912;30.300;2023-02-12T11:53:33;102047.88;;;1.03;67.15
35918;BME280;22011;59.912;30.300;2023-02-12T11:56:04;102047.25;;;0.98;67.30
35918;BME280;22011;59.912;30.300;2023-02-12T11:58:32;102040.44;;;0.94;67.60
35918;BME280;22011;59.912;30.300;2023-02-12T12:01:07;102041.16;;;0.97;67.63
35918;BME280;22011;59.912;30.300;2023-02-12T12:03:43;102035.97;;;0.96;67.66
35918;BME280;22011;59.912;30.300;2023-02-12T12:06:23;102034.66;;;1.05;68.38
35918;BME280;22011;59.912;30.300;2023-02-12T12:08:56;102026.03;;;1.03;68.05
35918;BME280;22011;59.912;30.300;2023-02-12T12:11:30;102027.75;;;1.04;68.25
35918;BME280;22011;59.912;30.300;2023-02-12T12:14:06;102013.84;;;1.02;67.90
35918;BME280;22011;59.912;30.300;2023-02-12T12:16:40;102003.50;;;0.98;68.42
35918;BME280;22011;59.912;30.300;2023-02-12T12:19:31;102000.88;;;0.98;68.28
35918;BME280;22011;59.912;30.300;2023-02-12T12:22:34;101991.59;;;1.09;68.66
35918;BME280;22011;59.912;30.300;2023-02-12T12:25:09;101991.94;;;1.03;68.77
35918;BME280;22011;59.912;30.300;2023-02-12T12:27:44;101983.28;;;1.01;68.57
35918;BME280;22011;59.912;30.300;2023-02-12T12:30:39;101978.63;;;1.06;68.84
35918;BME280;22011;59.912;30.300;2023-02-12T12:33:16;101979.47;;;1.06;68.78
35918;BME280;22011;59.912;30.300;2023-02-12T12:35:51;101969.06;;;1.05;68.28
35918;BME280;22011;59.912;30.300;2023-02-12T12:38:32;101971.38;;;1.11;68.81
35918;BME280;22011;59.912;30.300;2023-02-12T12:41:06;101958.34;;;1.26;69.23
35918;BME280;22011;59.912;30.300;2023-02-12T12:43:49;101955.19;;;1.20;68.78
35918;BME280;22011;59.912;30.300;2023-02-12T12:46:40;101953.31;;;1.22;68.61
35918;BME280;22011;59.912;30.300;2023-02-12T12:52:41;101937.81;;;1.17;69.02
35918;BME280;22011;59.912;30.300;2023-02-12T12:58:09;101928.94;;;1.03;69.24
35918;BME280;22011;59.912;30.300;2023-02-12T13:00:54;101923.84;;;1.00;69.52
35918;BME280;22011;59.912;30.300;2023-02-12T13:03:49;101921.81;;;1.05;69.92
35918;BME280;22011;59.912;30.300;2023-02-12T13:06:38;101926.53;;;0.98;69.39
35918;BME280;22011;59.912;30.300;2023-02-12T13:09:25;101917.97;;;0.94;69.78
35918;BME280;22011;59.912;30.300;2023-02-12T13:12:07;101912.25;;;0.86;69.94
35918;BME280;22011;59.912;30.300;2023-02-12T13:14:42;101907.28;;;0.80;69.49